Airfield :
LOGIN :

Register | Disclaimer

   EN    FR    IT 

 










Legend :    VFR   Marginal VFR   IFR   Intensive IFR   Very Intensive IFR
Visi :
Ceiling :
>= 8 km
>= 3000ft
5 to 8 km
1000 to 3000 ft
1500m to 5 km
500 to 1000 ft
800 to 1500m
200 to 500 ft
< 800m
< 200 ft
Symbols :   Thunderstorms  Fog  Heavy snow  Heavy precipitations  Wind > 20 kt
SIGMETs :     Misc.  Thunderstorms  Icing  Turbulence  Mountain Waves  Volcanic Ashes







- Airport Elevation : 1079 ft


ETIK - Illesheim Air Base

CURRENT METAR :
  • 251956Z AUTO 20003KT 9999 CLR 11/09 A2995 RMK AO2 SLP141 T01140090 $

EXPIRED METARs :
  • 251856Z AUTO 31004KT 9999 CLR 14/09 A2992 RMK AO2 RAB17E27 SLPNO P0000 T01380088 $
  • 251827Z AUTO 26009KT 9999 FEW075 14/09 A2991 RMK AO2 RAB17E27 SLPNO $
  • 251817Z AUTO 25009KT 9999 -RA FEW047 SCT080 15/09 A2991 RMK AO2 RAB17 SLPNO $
  • 251756Z AUTO 25012KT 9999 BKN080 15/09 A2991 RMK AO2 SLPNO T01510086 10203 20151 50001 $

TAF TAF ETIK
Valid from the 25 at 13:00 until the 26 at 19:00 UTC


251307Z 2513/2619 26015G25KT 9999 FEW035 BKN050 620602 520003 QNH2988INS
TEMPO 2513/2514 26025G35KT
BECMG 2515/2516 26015G20KT 8000 -SHRA SCT035 BKN050 620603 QNH2989INS
BECMG 2518/2519 27012KT 8000 -SHRA SCT020 BKN040 620602 QNH2990INS
BECMG 2523/2524 25009KT 9999 NSW BKN030 QNH2997INS
BECMG 2605/2606 26012KT 9999 SCT030 QNH3004INS
BECMG 2608/2609 26015G25KT 9999 SCT030 BKN050 620603 520003 QNH3006INS
BECMG 2614/2615 26010G15KT 9999 SCT030 BKN050 620603 QNH3006INS TX21/2514Z TN07/2603Z
No reported NOTAMs for that airfield.



MET'MAP, your aeronautical weather chart ! - Copyright ORBIFLY December 2007 - Disclaimer

ORBIFLY MET'MAP TEAM :

Programming & Development : Alexandra Zaïnal
Concept & Development : Baudouin d'Aumeries
Co-Development & Prog : Marc-Olivier Méhu
Technical & hardware support : Manuel Goepfert

Contact : metmap@orbifly.com




SOURCES & CREDITS :

   NOAA